createdAt,value
2023-05-16T00:01:51.392Z,100.00
2023-05-16T00:06:56.078Z,100.00
2023-05-16T00:12:00.429Z,100.00
2023-05-16T00:17:11.988Z,100.00
2023-05-16T00:22:16.822Z,100.00
2023-05-16T00:27:21.851Z,100.00
2023-05-16T00:32:28.027Z,100.00
2023-05-16T00:37:32.157Z,100.00
2023-05-16T00:42:37.398Z,100.00
2023-05-16T00:47:43.116Z,100.00
2023-05-16T00:52:47.490Z,100.00
2023-05-16T00:57:52.133Z,100.00
2023-05-16T01:02:58.588Z,100.00
2023-05-16T01:08:02.805Z,100.00
2023-05-16T01:13:14.105Z,100.00
2023-05-16T01:18:30.731Z,100.00
2023-05-16T01:23:43.804Z,100.00
2023-05-16T01:28:50.882Z,100.00
2023-05-16T01:33:55.975Z,100.00
2023-05-16T01:39:08.985Z,100.00
2023-05-16T01:44:20.530Z,100.00
2023-05-16T01:49:28.520Z,100.00
2023-05-16T01:54:34.567Z,100.00
2023-05-16T01:59:41.273Z,100.00
2023-05-16T02:04:45.544Z,100.00
2023-05-16T02:09:52.652Z,100.00
2023-05-16T02:14:58.255Z,100.00
2023-05-16T02:20:07.251Z,100.00
2023-05-16T02:25:11.700Z,100.00
2023-05-16T02:30:17.352Z,100.00
2023-05-16T02:35:21.694Z,100.00
2023-05-16T02:40:25.801Z,100.00
2023-05-16T02:45:31.863Z,100.00
2023-05-16T02:50:36.501Z,100.00
2023-05-16T02:55:41.041Z,100.00
2023-05-16T03:00:46.837Z,100.00
2023-05-16T03:05:52.119Z,100.00
2023-05-16T03:10:56.228Z,100.00
2023-05-16T03:16:02.496Z,100.00
2023-05-16T03:21:06.957Z,100.00
2023-05-16T03:26:11.663Z,100.00
2023-05-16T03:31:17.256Z,100.00
2023-05-16T03:36:24.910Z,100.00
2023-05-16T03:41:29.849Z,100.00
2023-05-16T03:46:36.377Z,100.00
2023-05-16T03:51:40.567Z,100.00
2023-05-16T03:56:44.832Z,100.00
2023-05-16T04:01:51.798Z,100.00
2023-05-16T04:06:56.146Z,100.00
2023-05-16T04:12:02.113Z,100.00
2023-05-16T04:17:07.912Z,100.00
2023-05-16T04:22:12.276Z,100.00
2023-05-16T04:27:16.408Z,100.00
2023-05-16T04:32:22.117Z,100.00
2023-05-16T04:37:26.887Z,100.00
2023-05-16T04:42:31.284Z,100.00
2023-05-16T04:47:36.932Z,100.00
2023-05-16T04:52:41.113Z,100.00
2023-05-16T04:57:45.494Z,100.00
2023-05-16T05:02:51.101Z,100.00
2023-05-16T05:07:55.600Z,100.00
2023-05-16T05:13:00.248Z,100.00
2023-05-16T05:18:06.331Z,100.00
2023-05-16T05:23:10.864Z,100.00
2023-05-16T05:28:15.103Z,100.00
2023-05-16T05:33:21.255Z,100.00
2023-05-16T05:38:25.778Z,99.58
2023-05-16T05:43:30.115Z,96.99
2023-05-16T05:48:36.313Z,94.59
2023-05-16T05:53:40.491Z,89.64
2023-05-16T05:58:44.633Z,74.75
2023-05-16T06:03:50.473Z,57.46
2023-05-16T06:08:54.613Z,55.44
2023-05-16T06:13:59.133Z,52.85
2023-05-16T06:19:04.695Z,44.57
2023-05-16T06:24:08.993Z,42.69
2023-05-16T06:29:13.694Z,43.28
2023-05-16T06:34:19.212Z,42.01
2023-05-16T06:39:23.638Z,43.82
2023-05-16T06:44:28.162Z,39.46
2023-05-16T06:49:34.334Z,37.05
2023-05-16T06:54:38.528Z,34.70
2023-05-16T06:59:43.137Z,36.81
2023-05-16T07:04:49.168Z,34.09
2023-05-16T07:09:53.859Z,33.76
2023-05-16T07:14:58.226Z,33.38
2023-05-16T07:20:05.586Z,33.31
2023-05-16T07:25:13.100Z,33.89
2023-05-16T07:30:17.291Z,37.39
2023-05-16T07:35:23.426Z,37.78
2023-05-16T07:40:29.721Z,39.42
2023-05-16T07:45:33.985Z,39.42
2023-05-16T07:50:40.183Z,42.52
2023-05-16T07:55:44.625Z,38.13
2023-05-16T08:00:48.857Z,35.31
2023-05-16T08:05:54.655Z,33.50
2023-05-16T08:10:59.021Z,32.89
2023-05-16T08:16:03.333Z,31.09
2023-05-16T08:21:09.747Z,30.97
2023-05-16T08:26:13.948Z,32.01
2023-05-16T08:31:18.269Z,29.54
2023-05-16T08:36:24.138Z,29.89
2023-05-16T08:41:28.632Z,29.40
2023-05-16T08:46:35.959Z,30.26
2023-05-16T08:51:42.570Z,34.70
2023-05-16T08:56:48.705Z,34.01
2023-05-16T09:01:53.258Z,34.48
2023-05-16T09:06:58.862Z,34.56
2023-05-16T09:12:03.033Z,34.19
2023-05-16T09:17:10.796Z,37.10
2023-05-16T09:22:17.871Z,38.02
2023-05-16T09:27:22.430Z,38.79
2023-05-16T09:32:27.321Z,39.71
2023-05-16T09:37:32.942Z,39.13
2023-05-16T09:42:37.553Z,38.88
2023-05-16T09:47:46.949Z,37.40
2023-05-16T09:52:52.396Z,37.22
2023-05-16T09:57:57.496Z,37.82
2023-05-16T10:03:05.878Z,39.48
2023-05-16T10:08:15.403Z,41.73
2023-05-16T10:13:21.426Z,41.12
2023-05-16T10:18:31.208Z,40.41
2023-05-16T10:23:37.387Z,40.99
2023-05-16T10:28:42.763Z,39.41
2023-05-16T10:33:48.778Z,37.73
2023-05-16T10:38:55.270Z,38.92
2023-05-16T10:44:00.540Z,40.08
2023-05-16T10:49:21.364Z,38.06
2023-05-16T10:54:36.349Z,37.92
2023-05-16T10:59:45.625Z,37.78
2023-05-16T11:04:51.811Z,37.90
2023-05-16T11:10:09.228Z,39.58
2023-05-16T11:15:26.010Z,37.99
2023-05-16T11:20:33.202Z,38.20
2023-05-16T11:25:41.569Z,38.89
2023-05-16T11:30:47.155Z,40.50
2023-05-16T11:36:15.941Z,37.90
2023-05-16T11:41:23.536Z,39.30
2023-05-16T11:46:27.870Z,39.10
2023-05-16T11:51:32.432Z,39.81
2023-05-16T11:56:38.918Z,40.08
2023-05-16T12:01:43.255Z,38.34
2023-05-16T12:07:00.870Z,39.44
2023-05-16T12:12:09.385Z,40.69
2023-05-16T12:17:13.582Z,39.93
2023-05-16T12:22:18.956Z,38.83
2023-05-16T12:27:28.678Z,39.37
2023-05-16T12:32:38.657Z,42.23
2023-05-16T12:37:45.336Z,40.48
2023-05-16T12:42:52.949Z,40.92
2023-05-16T12:47:57.510Z,41.15
2023-05-16T12:53:02.773Z,42.71
2023-05-16T12:58:09.386Z,43.80
2023-05-16T13:03:14.016Z,44.32
2023-05-16T13:08:18.598Z,44.89
2023-05-16T13:13:35.575Z,45.36
2023-05-16T13:18:40.857Z,45.82
2023-05-16T13:23:45.520Z,47.69
2023-05-16T13:28:53.237Z,48.63
2023-05-16T13:33:57.612Z,47.62
2023-05-16T13:39:02.167Z,47.99
2023-05-16T13:44:08.428Z,47.83
2023-05-16T13:49:12.640Z,53.67
2023-05-16T13:54:17.351Z,58.49
2023-05-16T13:59:44.685Z,63.29
2023-05-16T14:04:49.751Z,69.30
2023-05-16T14:09:57.403Z,74.78
2023-05-16T14:15:03.569Z,79.78
2023-05-16T14:20:10.924Z,83.46
2023-05-16T14:25:15.452Z,86.37
2023-05-16T14:30:21.144Z,85.54
2023-05-16T14:35:25.688Z,89.61
2023-05-16T14:40:30.438Z,91.07
2023-05-16T14:45:36.160Z,92.80
2023-05-16T14:50:40.574Z,91.73
2023-05-16T14:55:45.399Z,90.53
2023-05-16T15:00:51.570Z,97.41
2023-05-16T15:05:56.440Z,96.96
2023-05-16T15:11:00.802Z,97.50
2023-05-16T15:16:07.997Z,100.00
2023-05-16T15:21:12.678Z,98.44
2023-05-16T15:26:18.576Z,99.95
2023-05-16T15:31:24.274Z,100.00
2023-05-16T15:36:29.152Z,100.00
2023-05-16T15:41:56.937Z,100.00
2023-05-16T15:46:59.065Z,100.00
2023-05-16T15:52:03.396Z,100.00
2023-05-16T15:57:07.859Z,100.00
2023-05-16T16:02:13.698Z,100.00
2023-05-16T16:07:18.009Z,100.00
2023-05-16T16:12:22.873Z,100.00
2023-05-16T16:17:28.705Z,100.00
2023-05-16T16:22:33.482Z,100.00
2023-05-16T16:27:37.913Z,100.00
2023-05-16T16:32:44.013Z,100.00
2023-05-16T16:38:02.452Z,100.00
2023-05-16T16:43:10.684Z,100.00
2023-05-16T16:48:16.650Z,100.00
2023-05-16T16:53:20.894Z,100.00
2023-05-16T16:58:25.277Z,100.00
2023-05-16T17:03:31.028Z,100.00
2023-05-16T17:08:35.232Z,100.00
2023-05-16T17:13:42.044Z,100.00
2023-05-16T17:18:47.886Z,100.00
2023-05-16T17:23:52.452Z,100.00
2023-05-16T17:28:58.850Z,100.00
2023-05-16T17:34:04.497Z,100.00
2023-05-16T17:39:10.707Z,100.00
2023-05-16T17:44:15.060Z,100.00
2023-05-16T17:49:21.813Z,100.00
2023-05-16T17:54:30.770Z,100.00
2023-05-16T17:59:36.507Z,100.00
2023-05-16T18:04:42.188Z,100.00
2023-05-16T18:09:46.625Z,100.00
2023-05-16T18:14:50.915Z,100.00
2023-05-16T18:19:56.964Z,100.00
2023-05-16T18:25:01.575Z,100.00
2023-05-16T18:30:07.586Z,100.00
2023-05-16T18:35:13.542Z,100.00
2023-05-16T18:40:18.374Z,100.00
2023-05-16T18:45:23.271Z,100.00
2023-05-16T18:50:29.171Z,100.00
2023-05-16T18:55:33.960Z,100.00
2023-05-16T19:00:38.455Z,100.00
2023-05-16T19:05:44.384Z,100.00
2023-05-16T19:10:48.809Z,100.00
2023-05-16T19:15:53.671Z,100.00
2023-05-16T19:20:59.295Z,100.00
2023-05-16T19:26:03.792Z,100.00
2023-05-16T19:31:08.380Z,100.00
2023-05-16T19:36:14.772Z,100.00
2023-05-16T19:41:19.327Z,100.00
2023-05-16T19:46:24.017Z,100.00
2023-05-16T19:51:40.650Z,100.00
2023-05-16T19:56:45.819Z,100.00
2023-05-16T20:01:50.096Z,100.00
2023-05-16T20:06:55.824Z,100.00
2023-05-16T20:12:00.212Z,100.00
2023-05-16T20:17:04.855Z,100.00
2023-05-16T20:22:10.950Z,100.00
2023-05-16T20:27:15.165Z,100.00
2023-05-16T20:32:19.737Z,100.00
2023-05-16T20:37:26.915Z,100.00
2023-05-16T20:42:31.277Z,100.00
2023-05-16T20:47:35.609Z,100.00
2023-05-16T20:52:41.284Z,100.00
2023-05-16T20:57:45.675Z,100.00
2023-05-16T21:02:49.917Z,100.00
2023-05-16T21:07:55.959Z,100.00
2023-05-16T21:13:00.107Z,100.00
2023-05-16T21:18:04.330Z,100.00
2023-05-16T21:23:09.951Z,100.00
2023-05-16T21:28:14.532Z,100.00
2023-05-16T21:33:18.986Z,100.00
2023-05-16T21:38:24.691Z,100.00
2023-05-16T21:43:29.076Z,100.00
2023-05-16T21:48:33.988Z,100.00
2023-05-16T21:53:39.772Z,100.00
2023-05-16T21:58:44.176Z,100.00
2023-05-16T22:03:49.343Z,100.00
2023-05-16T22:08:55.385Z,100.00
2023-05-16T22:13:59.583Z,100.00
2023-05-16T22:19:03.942Z,100.00
2023-05-16T22:24:11.265Z,100.00
2023-05-16T22:29:15.806Z,100.00
2023-05-16T22:34:20.169Z,100.00
2023-05-16T22:39:26.052Z,100.00
2023-05-16T22:44:30.447Z,100.00
2023-05-16T22:49:34.607Z,100.00
2023-05-16T22:54:41.987Z,100.00
2023-05-16T22:59:46.121Z,100.00
2023-05-16T23:04:50.605Z,100.00
2023-05-16T23:09:56.533Z,100.00
2023-05-16T23:15:00.763Z,100.00
2023-05-16T23:20:05.459Z,100.00
2023-05-16T23:25:11.731Z,100.00
2023-05-16T23:30:16.763Z,100.00
2023-05-16T23:35:21.039Z,100.00
2023-05-16T23:40:26.642Z,100.00
2023-05-16T23:45:31.416Z,100.00
2023-05-16T23:50:35.790Z,100.00
2023-05-16T23:55:41.401Z,100.00
